sensor_id;sensor_type;location;lat;lon;timestamp;P1;durP1;ratioP1;P2;durP2;ratioP2
59998;SDS011;45859;51.378;6.736;2022-10-31T00:00:19;20.20;;;12.70;;
59998;SDS011;45859;51.378;6.736;2022-10-31T00:02:45;21.60;;;13.03;;
59998;SDS011;45859;51.378;6.736;2022-10-31T00:05:11;20.00;;;12.97;;
59998;SDS011;45859;51.378;6.736;2022-10-31T00:07:37;22.07;;;13.50;;
59998;SDS011;45859;51.378;6.736;2022-10-31T00:10:02;22.83;;;13.20;;
59998;SDS011;45859;51.378;6.736;2022-10-31T00:12:28;21.30;;;13.07;;
59998;SDS011;45859;51.378;6.736;2022-10-31T00:14:54;23.60;;;15.30;;
59998;SDS011;45859;51.378;6.736;2022-10-31T00:17:19;20.37;;;14.00;;
59998;SDS011;45859;51.378;6.736;2022-10-31T00:19:45;23.00;;;13.57;;
59998;SDS011;45859;51.378;6.736;2022-10-31T00:22:11;22.90;;;14.10;;
59998;SDS011;45859;51.378;6.736;2022-10-31T00:24:36;21.30;;;12.97;;
59998;SDS011;45859;51.378;6.736;2022-10-31T00:27:02;19.80;;;13.47;;
59998;SDS011;45859;51.378;6.736;2022-10-31T00:29:27;20.07;;;12.40;;
59998;SDS011;45859;51.378;6.736;2022-10-31T00:31:53;19.50;;;12.53;;
59998;SDS011;45859;51.378;6.736;2022-10-31T00:34:19;19.23;;;12.43;;
59998;SDS011;45859;51.378;6.736;2022-10-31T00:36:44;21.67;;;12.73;;
59998;SDS011;45859;51.378;6.736;2022-10-31T00:39:10;17.17;;;12.47;;
59998;SDS011;45859;51.378;6.736;2022-10-31T00:41:35;19.97;;;12.70;;
59998;SDS011;45859;51.378;6.736;2022-10-31T00:44:01;19.60;;;12.70;;
59998;SDS011;45859;51.378;6.736;2022-10-31T00:46:26;21.27;;;13.70;;
59998;SDS011;45859;51.378;6.736;2022-10-31T00:48:52;18.77;;;12.93;;
59998;SDS011;45859;51.378;6.736;2022-10-31T00:51:17;20.13;;;12.63;;
59998;SDS011;45859;51.378;6.736;2022-10-31T00:53:43;20.77;;;12.37;;
59998;SDS011;45859;51.378;6.736;2022-10-31T00:56:09;19.57;;;12.77;;
59998;SDS011;45859;51.378;6.736;2022-10-31T00:58:34;20.33;;;12.97;;
59998;SDS011;45859;51.378;6.736;2022-10-31T01:01:00;20.87;;;12.60;;
59998;SDS011;45859;51.378;6.736;2022-10-31T01:03:27;19.43;;;13.30;;
59998;SDS011;45859;51.378;6.736;2022-10-31T01:08:36;18.43;;;12.37;;
59998;SDS011;45859;51.378;6.736;2022-10-31T01:13:45;18.37;;;11.90;;
59998;SDS011;45859;51.378;6.736;2022-10-31T01:16:12;20.53;;;12.00;;
59998;SDS011;45859;51.378;6.736;2022-10-31T01:18:42;17.93;;;12.23;;
59998;SDS011;45859;51.378;6.736;2022-10-31T01:21:09;21.27;;;12.53;;
59998;SDS011;45859;51.378;6.736;2022-10-31T01:23:40;20.37;;;13.00;;
59998;SDS011;45859;51.378;6.736;2022-10-31T01:28:37;17.85;;;6.82;;
59998;SDS011;45859;51.378;6.736;2022-10-31T01:31:05;19.30;;;13.47;;
59998;SDS011;45859;51.378;6.736;2022-10-31T01:33:32;22.93;;;13.37;;
59998;SDS011;45859;51.378;6.736;2022-10-31T01:35:58;23.57;;;13.70;;
59998;SDS011;45859;51.378;6.736;2022-10-31T01:38:24;19.63;;;13.20;;
59998;SDS011;45859;51.378;6.736;2022-10-31T01:40:50;21.27;;;13.50;;
59998;SDS011;45859;51.378;6.736;2022-10-31T01:43:16;21.50;;;13.83;;
59998;SDS011;45859;51.378;6.736;2022-10-31T01:45:43;21.67;;;13.20;;
59998;SDS011;45859;51.378;6.736;2022-10-31T01:48:15;20.40;;;13.57;;
59998;SDS011;45859;51.378;6.736;2022-10-31T01:50:44;25.67;;;13.83;;
59998;SDS011;45859;51.378;6.736;2022-10-31T01:53:14;19.70;;;13.43;;
59998;SDS011;45859;51.378;6.736;2022-10-31T01:55:41;25.00;;;14.50;;
59998;SDS011;45859;51.378;6.736;2022-10-31T01:58:13;20.00;;;13.23;;
59998;SDS011;45859;51.378;6.736;2022-10-31T02:00:44;22.00;;;14.03;;
59998;SDS011;45859;51.378;6.736;2022-10-31T02:03:13;14.02;;;6.53;;
59998;SDS011;45859;51.378;6.736;2022-10-31T02:05:39;26.87;;;15.07;;
59998;SDS011;45859;51.378;6.736;2022-10-31T02:08:09;22.10;;;14.77;;
59998;SDS011;45859;51.378;6.736;2022-10-31T02:10:41;22.07;;;14.13;;
59998;SDS011;45859;51.378;6.736;2022-10-31T02:13:09;25.23;;;14.50;;
59998;SDS011;45859;51.378;6.736;2022-10-31T02:15:37;20.60;;;14.10;;
59998;SDS011;45859;51.378;6.736;2022-10-31T02:18:04;19.77;;;13.87;;
59998;SDS011;45859;51.378;6.736;2022-10-31T02:20:33;26.97;;;15.33;;
59998;SDS011;45859;51.378;6.736;2022-10-31T02:29:03;23.97;;;15.73;;
59998;SDS011;45859;51.378;6.736;2022-10-31T02:34:20;27.17;;;14.93;;
59998;SDS011;45859;51.378;6.736;2022-10-31T02:36:57;21.13;;;14.30;;
59998;SDS011;45859;51.378;6.736;2022-10-31T02:39:34;26.10;;;15.30;;
59998;SDS011;45859;51.378;6.736;2022-10-31T02:42:16;33.87;;;16.50;;
59998;SDS011;45859;51.378;6.736;2022-10-31T02:47:25;24.67;;;15.63;;
59998;SDS011;45859;51.378;6.736;2022-10-31T02:50:00;25.73;;;14.80;;
59998;SDS011;45859;51.378;6.736;2022-10-31T02:52:31;21.40;;;14.70;;
59998;SDS011;45859;51.378;6.736;2022-10-31T02:54:58;24.80;;;14.70;;
59998;SDS011;45859;51.378;6.736;2022-10-31T02:57:33;21.73;;;14.53;;
59998;SDS011;45859;51.378;6.736;2022-10-31T03:00:01;19.23;;;14.40;;
59998;SDS011;45859;51.378;6.736;2022-10-31T03:02:36;16.00;;;6.65;;
59998;SDS011;45859;51.378;6.736;2022-10-31T03:15:39;22.77;;;14.53;;
59998;SDS011;45859;51.378;6.736;2022-10-31T03:18:10;19.50;;;13.80;;
59998;SDS011;45859;51.378;6.736;2022-10-31T03:20:40;20.57;;;14.47;;
59998;SDS011;45859;51.378;6.736;2022-10-31T03:23:24;21.33;;;14.50;;
59998;SDS011;45859;51.378;6.736;2022-10-31T03:25:52;22.70;;;14.93;;
59998;SDS011;45859;51.378;6.736;2022-10-31T03:28:21;15.17;;;6.70;;
59998;SDS011;45859;51.378;6.736;2022-10-31T03:30:53;24.53;;;14.73;;
59998;SDS011;45859;51.378;6.736;2022-10-31T03:33:22;19.83;;;13.83;;
59998;SDS011;45859;51.378;6.736;2022-10-31T03:35:52;13.10;;;6.00;;
59998;SDS011;45859;51.378;6.736;2022-10-31T03:38:20;17.13;;;6.40;;
59998;SDS011;45859;51.378;6.736;2022-10-31T03:40:47;23.37;;;14.33;;
59998;SDS011;45859;51.378;6.736;2022-10-31T03:43:19;22.27;;;15.30;;
59998;SDS011;45859;51.378;6.736;2022-10-31T03:45:50;20.90;;;15.00;;
59998;SDS011;45859;51.378;6.736;2022-10-31T03:48:17;17.67;;;14.23;;
59998;SDS011;45859;51.378;6.736;2022-10-31T03:50:50;22.77;;;14.63;;
59998;SDS011;45859;51.378;6.736;2022-10-31T03:53:38;17.80;;;7.50;;
59998;SDS011;45859;51.378;6.736;2022-10-31T03:56:12;23.00;;;15.13;;
59998;SDS011;45859;51.378;6.736;2022-10-31T03:58:54;26.83;;;16.70;;
59998;SDS011;45859;51.378;6.736;2022-10-31T04:01:24;23.63;;;15.97;;
59998;SDS011;45859;51.378;6.736;2022-10-31T04:06:21;16.33;;;7.27;;
59998;SDS011;45859;51.378;6.736;2022-10-31T04:08:51;27.73;;;15.73;;
59998;SDS011;45859;51.378;6.736;2022-10-31T04:11:21;25.33;;;15.37;;
59998;SDS011;45859;51.378;6.736;2022-10-31T04:13:50;14.70;;;6.57;;
59998;SDS011;45859;51.378;6.736;2022-10-31T04:16:17;24.00;;;16.10;;
59998;SDS011;45859;51.378;6.736;2022-10-31T04:18:44;22.77;;;15.40;;
59998;SDS011;45859;51.378;6.736;2022-10-31T04:21:09;23.43;;;15.97;;
59998;SDS011;45859;51.378;6.736;2022-10-31T04:23:35;22.40;;;15.37;;
59998;SDS011;45859;51.378;6.736;2022-10-31T04:26:01;26.13;;;16.27;;
59998;SDS011;45859;51.378;6.736;2022-10-31T04:28:27;26.33;;;15.70;;
59998;SDS011;45859;51.378;6.736;2022-10-31T04:30:53;12.63;;;7.13;;
59998;SDS011;45859;51.378;6.736;2022-10-31T04:33:19;22.90;;;15.43;;
59998;SDS011;45859;51.378;6.736;2022-10-31T04:35:45;23.03;;;16.40;;
59998;SDS011;45859;51.378;6.736;2022-10-31T04:38:11;20.47;;;14.53;;
59998;SDS011;45859;51.378;6.736;2022-10-31T04:40:37;24.93;;;16.00;;
59998;SDS011;45859;51.378;6.736;2022-10-31T04:43:02;22.17;;;15.43;;
59998;SDS011;45859;51.378;6.736;2022-10-31T04:45:28;23.03;;;15.63;;
59998;SDS011;45859;51.378;6.736;2022-10-31T04:47:53;25.40;;;15.37;;
59998;SDS011;45859;51.378;6.736;2022-10-31T04:50:19;26.30;;;16.63;;
59998;SDS011;45859;51.378;6.736;2022-10-31T04:52:45;24.27;;;16.20;;
59998;SDS011;45859;51.378;6.736;2022-10-31T04:55:12;19.57;;;14.60;;
59998;SDS011;45859;51.378;6.736;2022-10-31T04:57:41;19.87;;;14.10;;
59998;SDS011;45859;51.378;6.736;2022-10-31T05:00:12;23.27;;;14.97;;
59998;SDS011;45859;51.378;6.736;2022-10-31T05:02:42;25.27;;;15.63;;
59998;SDS011;45859;51.378;6.736;2022-10-31T05:05:09;11.63;;;6.22;;
59998;SDS011;45859;51.378;6.736;2022-10-31T05:07:37;21.97;;;15.47;;
59998;SDS011;45859;51.378;6.736;2022-10-31T05:12:31;23.50;;;15.23;;
59998;SDS011;45859;51.378;6.736;2022-10-31T05:14:56;24.53;;;15.63;;
59998;SDS011;45859;51.378;6.736;2022-10-31T05:17:22;26.30;;;15.67;;
59998;SDS011;45859;51.378;6.736;2022-10-31T05:19:48;25.87;;;16.00;;
59998;SDS011;45859;51.378;6.736;2022-10-31T05:22:13;14.53;;;7.00;;
59998;SDS011;45859;51.378;6.736;2022-10-31T05:24:39;14.67;;;6.03;;
59998;SDS011;45859;51.378;6.736;2022-10-31T05:27:05;22.40;;;15.20;;
59998;SDS011;45859;51.378;6.736;2022-10-31T05:29:30;25.13;;;16.00;;
59998;SDS011;45859;51.378;6.736;2022-10-31T05:31:58;20.07;;;15.37;;
59998;SDS011;45859;51.378;6.736;2022-10-31T05:34:24;25.67;;;16.33;;
59998;SDS011;45859;51.378;6.736;2022-10-31T05:36:50;23.33;;;15.77;;
59998;SDS011;45859;51.378;6.736;2022-10-31T05:39:15;26.50;;;16.40;;
59998;SDS011;45859;51.378;6.736;2022-10-31T05:41:41;20.50;;;16.10;;
59998;SDS011;45859;51.378;6.736;2022-10-31T05:44:07;18.00;;;7.30;;
59998;SDS011;45859;51.378;6.736;2022-10-31T05:46:33;26.40;;;16.30;;
59998;SDS011;45859;51.378;6.736;2022-10-31T05:48:58;13.90;;;6.73;;
59998;SDS011;45859;51.378;6.736;2022-10-31T05:51:24;22.33;;;14.87;;
59998;SDS011;45859;51.378;6.736;2022-10-31T05:53:49;23.10;;;16.30;;
59998;SDS011;45859;51.378;6.736;2022-10-31T05:56:15;27.33;;;16.57;;
59998;SDS011;45859;51.378;6.736;2022-10-31T05:58:41;14.57;;;6.50;;
59998;SDS011;45859;51.378;6.736;2022-10-31T06:01:07;24.23;;;16.10;;
59998;SDS011;45859;51.378;6.736;2022-10-31T06:03:32;21.00;;;16.13;;
59998;SDS011;45859;51.378;6.736;2022-10-31T06:05:58;25.03;;;15.90;;
59998;SDS011;45859;51.378;6.736;2022-10-31T06:08:24;17.53;;;7.37;;
59998;SDS011;45859;51.378;6.736;2022-10-31T06:10:50;14.83;;;6.93;;
59998;SDS011;45859;51.378;6.736;2022-10-31T06:13:18;26.03;;;15.73;;
59998;SDS011;45859;51.378;6.736;2022-10-31T06:15:43;23.70;;;15.47;;
59998;SDS011;45859;51.378;6.736;2022-10-31T06:18:09;11.07;;;6.53;;
59998;SDS011;45859;51.378;6.736;2022-10-31T06:20:35;23.60;;;15.93;;
59998;SDS011;45859;51.378;6.736;2022-10-31T06:23:01;21.77;;;16.47;;
59998;SDS011;45859;51.378;6.736;2022-10-31T06:25:27;24.20;;;15.57;;
59998;SDS011;45859;51.378;6.736;2022-10-31T06:27:53;23.03;;;15.83;;
59998;SDS011;45859;51.378;6.736;2022-10-31T06:30:20;24.47;;;16.73;;
59998;SDS011;45859;51.378;6.736;2022-10-31T06:32:45;15.13;;;6.80;;
59998;SDS011;45859;51.378;6.736;2022-10-31T06:35:11;25.27;;;17.80;;
59998;SDS011;45859;51.378;6.736;2022-10-31T06:37:38;24.60;;;16.90;;
59998;SDS011;45859;51.378;6.736;2022-10-31T06:40:04;14.77;;;7.47;;
59998;SDS011;45859;51.378;6.736;2022-10-31T06:42:31;26.93;;;17.00;;
59998;SDS011;45859;51.378;6.736;2022-10-31T06:44:56;25.37;;;17.57;;
59998;SDS011;45859;51.378;6.736;2022-10-31T06:47:22;24.53;;;16.23;;
59998;SDS011;45859;51.378;6.736;2022-10-31T06:49:48;16.47;;;7.07;;
59998;SDS011;45859;51.378;6.736;2022-10-31T06:52:14;25.00;;;16.30;;
59998;SDS011;45859;51.378;6.736;2022-10-31T06:54:39;25.60;;;15.80;;
59998;SDS011;45859;51.378;6.736;2022-10-31T06:57:05;15.63;;;8.63;;
59998;SDS011;45859;51.378;6.736;2022-10-31T06:59:31;21.70;;;7.10;;
59998;SDS011;45859;51.378;6.736;2022-10-31T07:01:57;25.10;;;17.07;;
59998;SDS011;45859;51.378;6.736;2022-10-31T07:04:23;23.17;;;16.80;;
59998;SDS011;45859;51.378;6.736;2022-10-31T07:06:52;23.27;;;16.30;;
59998;SDS011;45859;51.378;6.736;2022-10-31T07:09:20;23.40;;;15.97;;
59998;SDS011;45859;51.378;6.736;2022-10-31T07:12:09;23.27;;;16.50;;
59998;SDS011;45859;51.378;6.736;2022-10-31T07:14:35;30.33;;;17.37;;
59998;SDS011;45859;51.378;6.736;2022-10-31T07:17:00;20.87;;;7.80;;
59998;SDS011;45859;51.378;6.736;2022-10-31T07:19:26;11.83;;;7.33;;
59998;SDS011;45859;51.378;6.736;2022-10-31T07:21:52;22.13;;;15.47;;
59998;SDS011;45859;51.378;6.736;2022-10-31T07:24:17;26.03;;;16.23;;
59998;SDS011;45859;51.378;6.736;2022-10-31T07:26:43;26.57;;;15.70;;
59998;SDS011;45859;51.378;6.736;2022-10-31T07:29:12;21.93;;;14.93;;
59998;SDS011;45859;51.378;6.736;2022-10-31T07:31:38;24.57;;;14.80;;
59998;SDS011;45859;51.378;6.736;2022-10-31T07:34:03;22.67;;;15.30;;
59998;SDS011;45859;51.378;6.736;2022-10-31T07:36:29;21.17;;;14.93;;
59998;SDS011;45859;51.378;6.736;2022-10-31T07:38:55;24.07;;;15.77;;
59998;SDS011;45859;51.378;6.736;2022-10-31T07:41:23;21.87;;;15.37;;
59998;SDS011;45859;51.378;6.736;2022-10-31T07:43:48;23.50;;;14.73;;
59998;SDS011;45859;51.378;6.736;2022-10-31T07:46:14;24.47;;;16.13;;
59998;SDS011;45859;51.378;6.736;2022-10-31T07:48:40;25.37;;;16.63;;
59998;SDS011;45859;51.378;6.736;2022-10-31T07:51:06;27.50;;;17.93;;
59998;SDS011;45859;51.378;6.736;2022-10-31T07:53:32;22.43;;;15.37;;
59998;SDS011;45859;51.378;6.736;2022-10-31T07:55:57;26.03;;;15.17;;
59998;SDS011;45859;51.378;6.736;2022-10-31T07:58:23;24.50;;;15.50;;
59998;SDS011;45859;51.378;6.736;2022-10-31T08:00:50;24.70;;;17.10;;
59998;SDS011;45859;51.378;6.736;2022-10-31T08:03:16;25.23;;;15.87;;
59998;SDS011;45859;51.378;6.736;2022-10-31T08:05:43;22.17;;;14.57;;
59998;SDS011;45859;51.378;6.736;2022-10-31T08:08:11;22.97;;;15.37;;
59998;SDS011;45859;51.378;6.736;2022-10-31T08:10:37;21.57;;;14.63;;
59998;SDS011;45859;51.378;6.736;2022-10-31T08:13:04;21.03;;;14.83;;
59998;SDS011;45859;51.378;6.736;2022-10-31T08:15:32;21.93;;;14.20;;
59998;SDS011;45859;51.378;6.736;2022-10-31T08:18:04;21.43;;;14.10;;
59998;SDS011;45859;51.378;6.736;2022-10-31T08:20:31;21.10;;;13.87;;
59998;SDS011;45859;51.378;6.736;2022-10-31T08:22:58;22.80;;;13.93;;
59998;SDS011;45859;51.378;6.736;2022-10-31T08:25:29;23.43;;;14.03;;
59998;SDS011;45859;51.378;6.736;2022-10-31T08:27:56;21.30;;;13.10;;
59998;SDS011;45859;51.378;6.736;2022-10-31T08:30:23;21.37;;;13.43;;
59998;SDS011;45859;51.378;6.736;2022-10-31T08:35:30;20.13;;;13.73;;
59998;SDS011;45859;51.378;6.736;2022-10-31T08:37:56;24.90;;;14.67;;
59998;SDS011;45859;51.378;6.736;2022-10-31T08:40:23;19.03;;;13.67;;
59998;SDS011;45859;51.378;6.736;2022-10-31T08:43:00;23.43;;;13.90;;
59998;SDS011;45859;51.378;6.736;2022-10-31T08:45:28;27.30;;;15.30;;
59998;SDS011;45859;51.378;6.736;2022-10-31T08:47:59;24.43;;;15.10;;
59998;SDS011;45859;51.378;6.736;2022-10-31T08:50:26;23.13;;;15.55;;
59998;SDS011;45859;51.378;6.736;2022-10-31T08:52:52;25.20;;;15.40;;
59998;SDS011;45859;51.378;6.736;2022-10-31T08:55:25;20.50;;;15.53;;
59998;SDS011;45859;51.378;6.736;2022-10-31T08:57:54;24.17;;;15.20;;
59998;SDS011;45859;51.378;6.736;2022-10-31T09:00:23;20.00;;;14.60;;
59998;SDS011;45859;51.378;6.736;2022-10-31T09:02:59;25.97;;;15.83;;
59998;SDS011;45859;51.378;6.736;2022-10-31T09:05:26;26.60;;;16.10;;
59998;SDS011;45859;51.378;6.736;2022-10-31T09:07:56;22.90;;;16.40;;
59998;SDS011;45859;51.378;6.736;2022-10-31T09:10:23;22.63;;;15.82;;
59998;SDS011;45859;51.378;6.736;2022-10-31T09:12:56;26.00;;;15.03;;
59998;SDS011;45859;51.378;6.736;2022-10-31T09:15:32;25.93;;;14.93;;
59998;SDS011;45859;51.378;6.736;2022-10-31T09:17:59;22.07;;;14.87;;
59998;SDS011;45859;51.378;6.736;2022-10-31T09:20:26;22.77;;;16.00;;
59998;SDS011;45859;51.378;6.736;2022-10-31T09:22:59;24.97;;;15.20;;
59998;SDS011;45859;51.378;6.736;2022-10-31T09:25:29;26.57;;;15.27;;
59998;SDS011;45859;51.378;6.736;2022-10-31T09:27:58;20.93;;;14.63;;
59998;SDS011;45859;51.378;6.736;2022-10-31T09:30:26;22.05;;;14.85;;
59998;SDS011;45859;51.378;6.736;2022-10-31T09:32:56;20.33;;;15.20;;
59998;SDS011;45859;51.378;6.736;2022-10-31T09:35:22;24.53;;;14.23;;
59998;SDS011;45859;51.378;6.736;2022-10-31T09:37:53;22.30;;;14.57;;
59998;SDS011;45859;51.378;6.736;2022-10-31T09:52:58;22.40;;;14.40;;
59998;SDS011;45859;51.378;6.736;2022-10-31T09:55:35;23.70;;;14.70;;
59998;SDS011;45859;51.378;6.736;2022-10-31T09:58:03;22.17;;;13.80;;
59998;SDS011;45859;51.378;6.736;2022-10-31T10:00:30;22.40;;;13.40;;
59998;SDS011;45859;51.378;6.736;2022-10-31T10:08:42;22.02;;;13.52;;
59998;SDS011;45859;51.378;6.736;2022-10-31T10:13:43;19.63;;;13.27;;
59998;SDS011;45859;51.378;6.736;2022-10-31T10:19:22;21.25;;;14.23;;
59998;SDS011;45859;51.378;6.736;2022-10-31T10:21:56;27.85;;;14.82;;
59998;SDS011;45859;51.378;6.736;2022-10-31T10:24:44;21.05;;;14.35;;
59998;SDS011;45859;51.378;6.736;2022-10-31T10:30:52;25.58;;;14.20;;
59998;SDS011;45859;51.378;6.736;2022-10-31T10:33:30;21.63;;;14.65;;
59998;SDS011;45859;51.378;6.736;2022-10-31T10:36:19;24.05;;;14.25;;
59998;SDS011;45859;51.378;6.736;2022-10-31T10:41:19;24.38;;;14.10;;
59998;SDS011;45859;51.378;6.736;2022-10-31T10:43:51;22.92;;;14.23;;
59998;SDS011;45859;51.378;6.736;2022-10-31T10:59:46;24.30;;;14.63;;
59998;SDS011;45859;51.378;6.736;2022-10-31T11:02:17;24.15;;;14.02;;
59998;SDS011;45859;51.378;6.736;2022-10-31T11:05:11;21.83;;;14.10;;
59998;SDS011;45859;51.378;6.736;2022-10-31T11:07:43;20.92;;;14.10;;
59998;SDS011;45859;51.378;6.736;2022-10-31T11:10:13;23.02;;;15.27;;
59998;SDS011;45859;51.378;6.736;2022-10-31T11:12:41;26.20;;;14.23;;
59998;SDS011;45859;51.378;6.736;2022-10-31T11:15:18;24.45;;;15.38;;
59998;SDS011;45859;51.378;6.736;2022-10-31T11:17:50;25.90;;;14.68;;
59998;SDS011;45859;51.378;6.736;2022-10-31T11:22:47;25.52;;;14.57;;
59998;SDS011;45859;51.378;6.736;2022-10-31T11:25:32;23.52;;;15.18;;
59998;SDS011;45859;51.378;6.736;2022-10-31T11:27:58;27.85;;;15.85;;
59998;SDS011;45859;51.378;6.736;2022-10-31T11:30:28;24.63;;;14.50;;
59998;SDS011;45859;51.378;6.736;2022-10-31T11:32:56;27.83;;;14.85;;
59998;SDS011;45859;51.378;6.736;2022-10-31T11:35:23;24.30;;;14.68;;
59998;SDS011;45859;51.378;6.736;2022-10-31T11:37:50;24.08;;;14.32;;
59998;SDS011;45859;51.378;6.736;2022-10-31T11:40:19;23.63;;;15.02;;
59998;SDS011;45859;51.378;6.736;2022-10-31T11:42:47;22.70;;;14.23;;
59998;SDS011;45859;51.378;6.736;2022-10-31T11:45:19;23.60;;;14.18;;
59998;SDS011;45859;51.378;6.736;2022-10-31T11:48:01;23.27;;;14.23;;
59998;SDS011;45859;51.378;6.736;2022-10-31T11:50:39;21.98;;;14.25;;
59998;SDS011;45859;51.378;6.736;2022-10-31T11:53:16;22.60;;;13.18;;
59998;SDS011;45859;51.378;6.736;2022-10-31T11:55:59;21.80;;;13.95;;
59998;SDS011;45859;51.378;6.736;2022-10-31T11:58:34;25.33;;;13.45;;
59998;SDS011;45859;51.378;6.736;2022-10-31T12:01:00;22.55;;;12.38;;
59998;SDS011;45859;51.378;6.736;2022-10-31T12:03:35;21.63;;;12.50;;
59998;SDS011;45859;51.378;6.736;2022-10-31T12:08:38;21.77;;;12.85;;
59998;SDS011;45859;51.378;6.736;2022-10-31T12:16:57;20.25;;;11.88;;
59998;SDS011;45859;51.378;6.736;2022-10-31T12:19:36;20.00;;;11.15;;
59998;SDS011;45859;51.378;6.736;2022-10-31T12:22:08;21.65;;;10.82;;
59998;SDS011;45859;51.378;6.736;2022-10-31T12:35:56;14.80;;;9.02;;
59998;SDS011;45859;51.378;6.736;2022-10-31T12:38:53;14.88;;;8.75;;
59998;SDS011;45859;51.378;6.736;2022-10-31T12:47:44;12.63;;;7.32;;
59998;SDS011;45859;51.378;6.736;2022-10-31T12:50:34;12.25;;;6.90;;
59998;SDS011;45859;51.378;6.736;2022-10-31T12:56:13;11.27;;;6.35;;
59998;SDS011;45859;51.378;6.736;2022-10-31T12:59:51;11.80;;;6.10;;
59998;SDS011;45859;51.378;6.736;2022-10-31T13:02:44;16.30;;;5.93;;
59998;SDS011;45859;51.378;6.736;2022-10-31T13:05:13;10.57;;;5.90;;
59998;SDS011;45859;51.378;6.736;2022-10-31T13:08:15;11.50;;;5.70;;
59998;SDS011;45859;51.378;6.736;2022-10-31T13:15:57;11.40;;;5.35;;
59998;SDS011;45859;51.378;6.736;2022-10-31T13:18:30;9.43;;;5.35;;
59998;SDS011;45859;51.378;6.736;2022-10-31T13:21:12;10.05;;;5.35;;
59998;SDS011;45859;51.378;6.736;2022-10-31T13:23:52;10.40;;;5.35;;
59998;SDS011;45859;51.378;6.736;2022-10-31T13:26:21;16.17;;;5.90;;
59998;SDS011;45859;51.378;6.736;2022-10-31T13:34:18;8.68;;;4.97;;
59998;SDS011;45859;51.378;6.736;2022-10-31T13:42:23;12.00;;;4.40;;
59998;SDS011;45859;51.378;6.736;2022-10-31T13:44:53;13.13;;;4.47;;
59998;SDS011;45859;51.378;6.736;2022-10-31T13:47:23;11.60;;;4.80;;
59998;SDS011;45859;51.378;6.736;2022-10-31T13:50:18;10.63;;;4.43;;
59998;SDS011;45859;51.378;6.736;2022-10-31T13:52:46;13.20;;;5.28;;
59998;SDS011;45859;51.378;6.736;2022-10-31T13:58:00;11.18;;;4.88;;
59998;SDS011;45859;51.378;6.736;2022-10-31T14:01:11;8.88;;;4.68;;
59998;SDS011;45859;51.378;6.736;2022-10-31T14:03:43;12.10;;;4.75;;
59998;SDS011;45859;51.378;6.736;2022-10-31T14:06:11;10.98;;;4.63;;
59998;SDS011;45859;51.378;6.736;2022-10-31T14:08:46;8.43;;;4.05;;
59998;SDS011;45859;51.378;6.736;2022-10-31T14:11:22;8.80;;;4.25;;
59998;SDS011;45859;51.378;6.736;2022-10-31T14:13:52;9.63;;;4.63;;
59998;SDS011;45859;51.378;6.736;2022-10-31T14:18:50;10.13;;;5.03;;
59998;SDS011;45859;51.378;6.736;2022-10-31T14:23:50;11.43;;;4.78;;
59998;SDS011;45859;51.378;6.736;2022-10-31T14:26:18;8.35;;;4.82;;
59998;SDS011;45859;51.378;6.736;2022-10-31T14:28:57;12.57;;;5.82;;
59998;SDS011;45859;51.378;6.736;2022-10-31T14:39:29;10.23;;;4.65;;
59998;SDS011;45859;51.378;6.736;2022-10-31T14:42:22;12.30;;;4.65;;
59998;SDS011;45859;51.378;6.736;2022-10-31T14:48:09;11.93;;;4.40;;
59998;SDS011;45859;51.378;6.736;2022-10-31T14:50:51;9.10;;;4.20;;
59998;SDS011;45859;51.378;6.736;2022-10-31T14:53:26;12.20;;;4.20;;
59998;SDS011;45859;51.378;6.736;2022-10-31T14:55:53;9.57;;;3.80;;
59998;SDS011;45859;51.378;6.736;2022-10-31T14:59:03;10.70;;;3.85;;
59998;SDS011;45859;51.378;6.736;2022-10-31T15:04:04;12.98;;;4.35;;
59998;SDS011;45859;51.378;6.736;2022-10-31T15:06:37;9.00;;;4.18;;
59998;SDS011;45859;51.378;6.736;2022-10-31T15:09:23;7.30;;;4.07;;
59998;SDS011;45859;51.378;6.736;2022-10-31T15:11:52;12.50;;;4.85;;
59998;SDS011;45859;51.378;6.736;2022-10-31T15:14:25;8.95;;;4.03;;
59998;SDS011;45859;51.378;6.736;2022-10-31T15:16:53;8.30;;;4.32;;
59998;SDS011;45859;51.378;6.736;2022-10-31T15:19:23;10.48;;;4.97;;
59998;SDS011;45859;51.378;6.736;2022-10-31T15:21:51;8.80;;;4.73;;
59998;SDS011;45859;51.378;6.736;2022-10-31T15:24:19;10.65;;;4.80;;
59998;SDS011;45859;51.378;6.736;2022-10-31T15:26:49;17.27;;;4.50;;
59998;SDS011;45859;51.378;6.736;2022-10-31T15:29:24;9.52;;;4.25;;
59998;SDS011;45859;51.378;6.736;2022-10-31T15:31:59;9.15;;;3.92;;
59998;SDS011;45859;51.378;6.736;2022-10-31T15:34:37;10.18;;;4.50;;
59998;SDS011;45859;51.378;6.736;2022-10-31T15:37:09;11.27;;;4.57;;
59998;SDS011;45859;51.378;6.736;2022-10-31T15:39:37;10.27;;;4.35;;
59998;SDS011;45859;51.378;6.736;2022-10-31T15:42:03;9.45;;;3.85;;
59998;SDS011;45859;51.378;6.736;2022-10-31T15:44:33;14.23;;;4.43;;
59998;SDS011;45859;51.378;6.736;2022-10-31T15:47:06;11.65;;;4.10;;
59998;SDS011;45859;51.378;6.736;2022-10-31T15:49:41;12.38;;;4.55;;
59998;SDS011;45859;51.378;6.736;2022-10-31T15:52:29;11.20;;;3.97;;
59998;SDS011;45859;51.378;6.736;2022-10-31T15:57:38;9.55;;;4.40;;
59998;SDS011;45859;51.378;6.736;2022-10-31T16:00:06;11.10;;;3.95;;
59998;SDS011;45859;51.378;6.736;2022-10-31T16:02:46;10.18;;;4.80;;
59998;SDS011;45859;51.378;6.736;2022-10-31T16:05:16;10.70;;;3.63;;
59998;SDS011;45859;51.378;6.736;2022-10-31T16:07:50;8.25;;;3.78;;
59998;SDS011;45859;51.378;6.736;2022-10-31T16:10:24;11.38;;;4.80;;
59998;SDS011;45859;51.378;6.736;2022-10-31T16:12:50;9.75;;;4.38;;
59998;SDS011;45859;51.378;6.736;2022-10-31T16:15:17;14.07;;;4.28;;
59998;SDS011;45859;51.378;6.736;2022-10-31T16:17:47;13.15;;;4.60;;
59998;SDS011;45859;51.378;6.736;2022-10-31T16:20:20;9.20;;;4.13;;
59998;SDS011;45859;51.378;6.736;2022-10-31T16:22:50;11.27;;;5.53;;
59998;SDS011;45859;51.378;6.736;2022-10-31T16:27:57;12.70;;;3.75;;
59998;SDS011;45859;51.378;6.736;2022-10-31T16:30:29;14.15;;;5.10;;
59998;SDS011;45859;51.378;6.736;2022-10-31T16:32:57;11.40;;;4.10;;
59998;SDS011;45859;51.378;6.736;2022-10-31T16:37:51;11.65;;;4.35;;
59998;SDS011;45859;51.378;6.736;2022-10-31T16:40:17;10.02;;;3.88;;
59998;SDS011;45859;51.378;6.736;2022-10-31T16:42:44;7.47;;;3.72;;
59998;SDS011;45859;51.378;6.736;2022-10-31T16:45:15;6.20;;;4.25;;
59998;SDS011;45859;51.378;6.736;2022-10-31T16:47:46;11.40;;;4.07;;
59998;SDS011;45859;51.378;6.736;2022-10-31T16:50:14;8.88;;;4.22;;
59998;SDS011;45859;51.378;6.736;2022-10-31T16:55:11;8.70;;;4.05;;
59998;SDS011;45859;51.378;6.736;2022-10-31T16:57:38;9.30;;;4.15;;
59998;SDS011;45859;51.378;6.736;2022-10-31T17:00:20;9.25;;;4.30;;
59998;SDS011;45859;51.378;6.736;2022-10-31T17:02:52;11.82;;;4.50;;
59998;SDS011;45859;51.378;6.736;2022-10-31T17:05:24;11.35;;;3.97;;
59998;SDS011;45859;51.378;6.736;2022-10-31T17:07:57;6.90;;;4.10;;
59998;SDS011;45859;51.378;6.736;2022-10-31T17:10:24;11.43;;;4.43;;
59998;SDS011;45859;51.378;6.736;2022-10-31T17:12:51;8.75;;;4.05;;
59998;SDS011;45859;51.378;6.736;2022-10-31T17:15:21;12.82;;;4.40;;
59998;SDS011;45859;51.378;6.736;2022-10-31T17:17:49;9.77;;;4.20;;
59998;SDS011;45859;51.378;6.736;2022-10-31T17:22:49;9.40;;;4.13;;
59998;SDS011;45859;51.378;6.736;2022-10-31T17:25:16;10.18;;;4.43;;